Time;durP1;ratioP1;P1;durP2;ratioP2;P2;SDS_P1;SDS_P2;PMS_P1;PMS_P2;Temp;Humidity;BMP_temperature;BMP_pressure;BME280_temperature;BME280_humidity;BME280_pressure;Samples;Min_cycle;Max_cycle;Signal;HPM_P1;HPM_P2
2022/11/02 00:00:49;;;;;;;8.20;2.42;;;10.00;99.90;;;;;;5052135;28;20044;-81
2022/11/02 00:03:42;;;;;;;8.27;2.42;;;;;;;;;;5046850;28;20044;-81
2022/11/02 00:07:01;;;;;;;9.57;2.08;;;;;;;;;;5051536;28;20029;-83
2022/11/02 00:19:44;;;;;;;8.60;1.83;;;10.20;99.90;;;;;;5068838;28;20082;-80
2022/11/02 00:25:58;;;;;;;7.75;2.00;;;;;;;;;;5028359;28;20033;-81
2022/11/02 00:28:52;;;;;;;;;;;10.30;99.90;;;;;;5041488;28;20116;-80
2022/11/02 00:31:41;;;;;;;6.35;1.95;;;;;;;;;;4999683;28;20001;-81
2022/11/02 00:34:39;;;;;;;6.43;1.65;;;;;;;;;;4993608;28;20468;-81
2022/11/02 00:37:34;;;;;;;7.03;3.03;;;;;;;;;;4957003;28;20039;-80
2022/11/02 00:40:51;;;;;;;8.45;1.90;;;;;;;;;;5007148;28;20037;-82
2022/11/02 02:15:26;;;;;;;9.82;1.88;;;11.10;99.90;;;;;;5037913;28;20041;-83
2022/11/02 02:18:40;;;;;;;9.98;2.00;;;;;;;;;;5048373;28;20029;-83
2022/11/02 02:24:33;;;;;;;9.57;1.70;;;;;;;;;;5050825;28;20092;-83
2022/11/02 02:30:27;;;;;;;7.32;1.80;;;;;;;;;;5053613;28;20065;-83
2022/11/02 02:33:33;;;;;;;15.63;2.08;;;;;;;;;;5032880;28;20090;-82
2022/11/02 02:36:47;;;;;;;8.55;2.22;;;;;;;;;;5032780;28;20048;-80
2022/11/02 03:57:29;;;;;;;8.45;1.70;;;;;;;;;;4176367;22;20097;-82
2022/11/02 04:00:11;;;;;;;9.27;1.70;;;;;;;;;;4974743;28;20049;-82
2022/11/02 04:02:44;;;;;;;12.15;2.15;;;;;;;;;;5003550;28;20348;-80
2022/11/02 04:19:44;;;;;;;9.57;1.95;;;11.80;99.90;;;;;;5034280;28;20145;-80
2022/11/02 04:27:40;;;;;;;9.52;1.80;;;;;;;;;;5034642;28;20452;-83
2022/11/02 04:30:07;;;;;;;8.18;1.55;;;11.70;99.90;;;;;;5016395;28;20028;-79
2022/11/02 04:35:36;;;;;;;10.10;1.80;;;;;;;;;;5026826;28;20102;-79
2022/11/02 04:41:40;;;;;;;11.63;2.90;;;11.80;99.90;;;;;;5026032;28;20099;-84
2022/11/02 04:43:34;;;;;;;9.82;2.30;;;;;;;;;;5028794;28;20081;-84
2022/11/02 04:46:01;;;;;;;8.38;1.77;;;;;;;;;;5012147;28;20044;-79
2022/11/02 04:48:27;;;;;;;10.75;2.10;;;;;;;;;;5018530;28;20101;-83
2022/11/02 04:50:53;;;;;;;10.10;1.85;;;11.80;99.90;;;;;;5020006;28;20065;-84
2022/11/02 04:53:19;;;;;;;9.73;1.60;;;;;;;;;;5010792;28;20030;-83
2022/11/02 04:55:46;;;;;;;11.60;1.88;;;11.90;99.90;;;;;;5003953;28;20022;-85
2022/11/02 04:58:12;;;;;;;12.85;1.88;;;;;;;;;;5028325;28;20026;-81
2022/11/02 05:00:38;;;;;;;8.15;1.63;;;;;;;;;;5041318;28;20021;-84
2022/11/02 05:03:05;;;;;;;7.78;2.10;;;12.00;99.90;;;;;;5014171;28;20033;-81
2022/11/02 05:05:31;;;;;;;12.05;2.03;;;;;;;;;;5042991;28;20029;-84
2022/11/02 05:07:57;;;;;;;11.38;2.22;;;;;;;;;;5011809;28;20446;-85
2022/11/02 05:10:23;;;;;;;11.20;1.92;;;;;;;;;;5031006;28;20037;-85
2022/11/02 05:12:56;;;;;;;11.00;1.65;;;12.10;99.90;;;;;;5008196;28;20041;-85
2022/11/02 05:15:22;;;;;;;11.70;1.80;;;;;;;;;;5025534;28;20049;-80
2022/11/02 05:17:48;;;;;;;10.70;2.30;;;;;;;;;;5012329;28;20177;-81
2022/11/02 05:20:14;;;;;;;7.97;2.03;;;;;;;;;;5015150;28;20018;-82
2022/11/02 05:22:41;;;;;;;9.50;2.33;;;;;;;;;;5023735;28;20040;-80
2022/11/02 05:25:11;;;;;;;9.13;2.15;;;12.10;99.90;;;;;;5007309;28;20022;-85
2022/11/02 05:27:37;;;;;;;10.57;1.90;;;;;;;;;;5020158;28;20048;-82
2022/11/02 05:30:04;;;;;;;10.32;2.30;;;12.10;99.90;;;;;;5010770;28;20041;-83
2022/11/02 05:32:30;;;;;;;12.70;2.80;;;12.00;99.90;;;;;;5000906;28;20053;-81
2022/11/02 05:34:56;;;;;;;10.25;2.20;;;;;;;;;;5011696;28;20029;-85
2022/11/02 05:37:22;;;;;;;8.65;2.35;;;;;;;;;;5018368;28;20083;-84
2022/11/02 05:39:48;;;;;;;14.23;2.47;;;;;;;;;;5014017;28;20025;-85
2022/11/02 05:42:14;;;;;;;9.43;2.50;;;;;;;;;;5011787;28;20108;-86
2022/11/02 05:44:40;;;;;;;10.25;3.08;;;;;;;;;;5015859;28;20059;-80
2022/11/02 05:47:07;;;;;;;10.05;2.00;;;;;;;;;;5015529;28;20056;-84
2022/11/02 05:49:33;;;;;;;10.50;1.95;;;;;;;;;;5013739;28;20060;-86
2022/11/02 05:51:59;;;;;;;11.32;1.70;;;;;;;;;;5015055;28;20029;-84
2022/11/02 05:54:25;;;;;;;11.85;2.00;;;;;;;;;;5022524;28;20026;-85
2022/11/02 05:56:51;;;;;;;8.90;1.80;;;11.80;99.90;;;;;;5000859;28;20116;-85
2022/11/02 05:59:17;;;;;;;9.85;1.75;;;;;;;;;;5015283;28;20057;-85
2022/11/02 06:01:43;;;;;;;17.35;2.20;;;11.70;99.90;;;;;;5017847;28;20036;-86
2022/11/02 06:04:09;;;;;;;11.05;1.75;;;;;;;;;;5017434;28;20041;-84
2022/11/02 06:06:35;;;;;;;9.23;2.15;;;;;;;;;;5017765;28;20026;-84
2022/11/02 06:09:01;;;;;;;11.35;2.50;;;;;;;;;;5021474;28;20112;-84
2022/11/02 06:11:27;;;;;;;9.13;2.15;;;;;;;;;;5009756;28;20451;-86
2022/11/02 06:13:53;;;;;;;7.82;1.90;;;;;;;;;;5022860;28;20085;-85
2022/11/02 06:16:19;;;;;;;9.60;2.20;;;;;;;;;;5006784;28;20033;-86
2022/11/02 06:18:45;;;;;;;11.80;2.10;;;;;;;;;;5009973;28;20025;-85
2022/11/02 06:21:11;;;;;;;9.70;2.15;;;;;;;;;;5019730;28;20586;-86
2022/11/02 06:23:38;;;;;;;13.88;2.90;;;;;;;;;;5013832;28;20026;-86
2022/11/02 06:26:04;;;;;;;12.48;2.67;;;;;;;;;;5026343;28;20029;-87
2022/11/02 06:28:30;;;;;;;12.52;2.47;;;;;;;;;;5011388;28;20025;-85
2022/11/02 06:30:57;;;;;;;7.18;2.03;;;11.70;99.90;;;;;;5024079;28;20051;-86
2022/11/02 06:33:23;;;;;;;12.93;2.28;;;;;;;;;;5025489;28;20056;-83
2022/11/02 06:35:51;;;;;;;7.50;1.83;;;11.60;99.90;;;;;;5029860;28;20025;-84
2022/11/02 06:38:17;;;;;;;10.02;2.60;;;;;;;;;;5013993;28;20057;-88
2022/11/02 06:40:43;;;;;;;9.82;2.00;;;;;;;;;;5020897;28;20037;-87
2022/11/02 06:43:11;;;;;;;15.23;2.65;;;;;;;;;;5041874;28;20026;-84
2022/11/02 06:45:37;;;;;;;37.08;14.52;;;;;;;;;;5029719;28;20127;-87
2022/11/02 06:48:03;;;;;;;6.93;1.98;;;;;;;;;;5042883;28;20093;-88
2022/11/02 06:50:29;;;;;;;12.35;2.65;;;;;;;;;;5018609;28;20161;-86
2022/11/02 06:52:55;;;;;;;11.00;2.70;;;;;;;;;;5029467;28;20040;-85
2022/11/02 06:55:21;;;;;;;11.30;2.22;;;;;;;;;;5015980;28;20113;-88
2022/11/02 06:57:47;;;;;;;5.70;1.92;;;;;;;;;;5026556;28;20022;-86
2022/11/02 07:00:17;;;;;;;10.55;2.75;;;11.50;99.90;;;;;;5024904;28;20330;-85
2022/11/02 07:02:44;;;;;;;5.90;1.70;;;11.40;99.90;;;;;;5030791;28;20064;-84
2022/11/02 07:05:10;;;;;;;11.10;2.17;;;;;;;;;;5043975;28;20084;-86
2022/11/02 07:07:36;;;;;;;8.55;2.08;;;;;;;;;;5039778;28;20033;-85
2022/11/02 07:10:03;;;;;;;12.70;1.85;;;11.50;99.90;;;;;;5021480;28;20029;-87
2022/11/02 07:12:31;;;;;;;8.20;1.75;;;11.50;99.90;;;;;;5026766;28;20041;-88
2022/11/02 07:14:57;;;;;;;12.52;2.08;;;;;;;;;;5023583;28;20036;-86
2022/11/02 07:17:23;;;;;;;14.68;2.55;;;;;;;;;;5007648;28;20279;-87
2022/11/02 07:19:52;;;;;;;8.85;1.90;;;;;;;;;;5029927;28;20022;-88
2022/11/02 07:22:18;;;;;;;13.20;2.42;;;;;;;;;;4999281;28;20057;-88
2022/11/02 07:24:44;;;;;;;16.88;2.40;;;;;;;;;;5039652;28;20450;-88
2022/11/02 07:27:10;;;;;;;9.38;1.70;;;;;;;;;;5041900;28;20041;-90
2022/11/02 07:29:36;;;;;;;11.32;2.35;;;;;;;;;;5017379;28;20018;-88
2022/11/02 07:32:02;;;;;;;11.55;2.00;;;;;;;;;;5020930;28;20036;-88
2022/11/02 07:34:28;;;;;;;13.50;3.22;;;;;;;;;;5012840;28;20029;-89
2022/11/02 07:36:55;;;;;;;11.18;2.22;;;;;;;;;;5014943;28;20386;-87
2022/11/02 07:39:21;;;;;;;13.88;3.00;;;;;;;;;;5030816;28;20029;-88
2022/11/02 07:41:47;;;;;;;12.70;3.72;;;;;;;;;;5040111;28;20029;-88
2022/11/02 07:44:13;;;;;;;10.70;1.90;;;;;;;;;;5010315;28;20053;-88
2022/11/02 07:46:39;;;;;;;8.80;2.08;;;;;;;;;;5021259;28;20059;-85
2022/11/02 07:49:05;;;;;;;8.82;2.22;;;;;;;;;;5033477;28;20029;-86
2022/11/02 07:51:31;;;;;;;10.13;2.30;;;;;;;;;;5012600;28;20040;-86
2022/11/02 07:53:58;;;;;;;9.93;2.30;;;;;;;;;;5013098;28;20025;-88
2022/11/02 07:56:24;;;;;;;8.75;2.15;;;;;;;;;;5046234;28;20033;-86
2022/11/02 07:58:50;;;;;;;15.60;2.65;;;;;;;;;;5025289;28;20025;-84
2022/11/02 08:01:16;;;;;;;11.75;2.95;;;;;;;;;;5039162;28;20533;-87
2022/11/02 08:03:42;;;;;;;9.57;2.45;;;;;;;;;;5019757;28;20057;-87
2022/11/02 08:06:09;;;;;;;11.98;4.25;;;12.30;99.90;;;;;;5028300;28;20033;-87
2022/11/02 08:08:35;;;;;;;9.02;1.98;;;;;;;;;;5042251;28;20033;-87
2022/11/02 08:11:06;;;;;;;10.73;2.28;;;12.20;99.90;;;;;;5023369;28;20033;-87
2022/11/02 08:13:32;;;;;;;12.68;2.13;;;;;;;;;;5023513;28;20056;-88
2022/11/02 08:15:58;;;;;;;13.13;2.78;;;;;;;;;;5017479;28;20033;-86
2022/11/02 08:18:26;;;;;;;7.20;1.90;;;12.00;99.90;;;;;;5041148;28;20033;-88
2022/11/02 08:20:54;;;;;;;10.00;1.73;;;;;;;;;;5033761;28;20029;-88
2022/11/02 08:23:20;;;;;;;13.07;2.53;;;;;;;;;;5042516;28;20057;-87
2022/11/02 08:25:47;;;;;;;8.65;2.05;;;12.20;99.90;;;;;;5025132;28;20025;-88
2022/11/02 08:28:15;;;;;;;12.02;2.38;;;;;;;;;;5036862;28;20025;-88
2022/11/02 08:30:41;;;;;;;15.18;2.33;;;12.20;99.90;;;;;;5027365;28;20036;-87
2022/11/02 08:33:12;;;;;;;9.55;2.35;;;12.30;99.90;;;;;;5025060;28;20025;-88
2022/11/02 08:35:38;;;;;;;10.90;2.30;;;;;;;;;;5027027;28;20021;-88
2022/11/02 08:38:04;;;;;;;11.95;2.15;;;;;;;;;;5027679;28;20063;-85
2022/11/02 08:40:30;;;;;;;11.82;2.33;;;;;;;;;;5026602;28;20040;-88
2022/11/02 08:43:09;;;;;;;10.07;2.10;;;12.60;99.90;;;;;;5008571;28;20053;-87
2022/11/02 08:45:38;;;;;;;7.70;2.80;;;12.70;99.90;;;;;;5024414;28;20053;-87
2022/11/02 08:48:04;;;;;;;12.65;2.65;;;;;;;;;;5003661;28;20083;-90
2022/11/02 08:50:30;;;;;;;11.45;3.00;;;;;;;;;;5018946;28;20044;-91
2022/11/02 08:52:56;;;;;;;9.13;2.28;;;;;;;;;;5042765;28;20089;-87
2022/11/02 08:55:22;;;;;;;18.13;3.22;;;;;;;;;;5039729;28;20104;-90
2022/11/02 08:57:49;;;;;;;16.08;2.70;;;;;;;;;;5023387;28;20049;-88
2022/11/02 09:00:20;;;;;;;13.38;2.38;;;13.00;99.90;;;;;;5023068;28;20041;-88
2022/11/02 09:02:58;;;;;;;10.25;2.60;;;13.10;99.90;;;;;;5023421;28;20055;-88
2022/11/02 09:05:24;;;;;;;12.77;2.50;;;;;;;;;;5044180;28;20048;-89
2022/11/02 09:07:58;;;;;;;13.07;2.38;;;13.20;99.90;;;;;;5028593;28;20030;-89
2022/11/02 09:10:25;;;;;;;13.13;2.35;;;13.40;99.90;;;;;;5024558;28;20624;-87
2022/11/02 09:12:51;;;;;;;9.85;2.28;;;13.50;99.90;;;;;;5038408;28;20045;-85
2022/11/02 09:15:17;;;;;;;14.80;2.38;;;;;;;;;;5018334;28;20021;-84
2022/11/02 09:17:48;;;;;;;12.85;2.28;;;13.70;99.90;;;;;;5014443;28;20394;-88
2022/11/02 09:20:18;;;;;;;9.73;2.20;;;13.70;99.90;;;;;;5030523;28;20138;-86
2022/11/02 09:22:45;;;;;;;9.32;2.13;;;;;;;;;;5026540;28;20021;-86
2022/11/02 09:25:11;;;;;;;14.95;2.42;;;;;;;;;;5017564;28;20122;-84
2022/11/02 09:27:36;;;;;;;11.77;2.53;;;13.70;99.90;;;;;;5014551;28;20048;-84
2022/11/02 09:30:03;;;;;;;12.55;2.40;;;13.70;99.90;;;;;;5012402;28;20034;-86
2022/11/02 09:32:32;;;;;;;12.07;2.22;;;14.00;99.90;;;;;;5003576;28;20044;-81
2022/11/02 09:35:07;;;;;;;13.18;2.90;;;14.00;99.90;;;;;;5017040;28;20045;-84
2022/11/02 09:37:33;;;;;;;14.18;2.80;;;;;;;;;;5016432;28;20025;-81
2022/11/02 09:39:59;;;;;;;17.25;2.85;;;;;;;;;;5023306;28;20131;-84
2022/11/02 09:42:53;;;;;;;10.88;3.10;;;14.30;99.90;;;;;;5014748;28;20033;-85
2022/11/02 09:45:20;;;;;;;12.65;3.10;;;14.30;99.90;;;;;;5030322;28;20097;-83
2022/11/02 09:48:04;;;;;;;10.93;2.28;;;14.30;99.90;;;;;;5016647;28;20033;-87
2022/11/02 09:50:43;;;;;;;12.55;2.60;;;14.30;99.90;;;;;;5011451;28;20032;-86
2022/11/02 09:53:16;;;;;;;10.68;2.63;;;14.40;99.90;;;;;;5016089;28;20041;-83
2022/11/02 09:55:56;;;;;;;13.57;2.80;;;14.30;99.90;;;;;;5019293;28;20030;-84
2022/11/02 09:58:32;;;;;;;12.63;2.53;;;14.40;99.90;;;;;;5014860;28;20482;-85
2022/11/02 10:01:23;;;;;;;14.68;2.92;;;14.50;99.90;;;;;;5011632;28;20025;-83
2022/11/02 10:04:01;;;;;;;10.63;2.03;;;14.50;99.90;;;;;;5022197;28;20109;-85
2022/11/02 10:06:27;;;;;;;11.18;2.08;;;14.30;99.90;;;;;;5012174;28;20097;-87
2022/11/02 10:09:17;;;;;;;9.23;2.00;;;14.20;99.90;;;;;;5021201;28;20065;-85
2022/11/02 10:11:42;;;;;;;13.40;1.98;;;;;;;;;;5034689;28;20085;-85
2022/11/02 10:14:15;;;;;;;13.10;2.58;;;;;;;;;;5252099;23;20041;-81
2022/11/02 10:16:55;;;;;;;16.27;2.50;;;;;;;;;;5041597;28;20041;-83
2022/11/02 10:19:22;;;;;;;12.00;2.25;;;;;;;;;;5023678;28;20033;-82
2022/11/02 10:21:57;;;;;;;;;;;13.80;99.90;;;;;;5042545;28;20018;-83
2022/11/02 10:24:42;;;;;;;9.88;2.10;;;;;;;;;;5039037;28;19913;-83
2022/11/02 10:27:25;;;;;;;12.40;2.58;;;;;;;;;;5039295;28;20024;-84
2022/11/02 10:29:58;;;;;;;11.95;2.05;;;;;;;;;;5026945;28;20022;-83
2022/11/02 10:32:27;;;;;;;11.00;2.70;;;;;;;;;;5036586;28;20021;-82
2022/11/02 10:34:55;;;;;;;8.55;1.73;;;;;;;;;;5021585;28;20033;-83
2022/11/02 10:37:40;;;;;;;10.93;2.20;;;14.30;99.90;;;;;;5051839;28;20026;-82
2022/11/02 10:40:18;;;;;;;7.30;1.83;;;;;;;;;;5047680;28;20079;-83
2022/11/02 10:43:22;;;;;;;9.30;2.00;;;14.60;99.90;;;;;;5046977;28;20028;-82
2022/11/02 10:46:01;;;;;;;11.90;2.42;;;;;;;;;;5020050;28;20030;-83
2022/11/02 10:48:55;;;;;;;13.48;3.45;;;;;;;;;;5029548;28;20033;-83
2022/11/02 10:51:25;;;;;;;11.15;2.10;;;;;;;;;;5041890;28;20057;-85
2022/11/02 10:53:52;;;;;;;12.25;2.15;;;;;;;;;;5042701;28;20030;-85
2022/11/02 10:56:28;;;;;;;11.70;2.13;;;;;;;;;;5041031;28;20072;-84
2022/11/02 10:59:03;;;;;;;9.95;2.22;;;;;;;;;;5049646;28;20040;-84
2022/11/02 11:01:33;;;;;;;5.63;1.98;;;;;;;;;;5050430;28;20036;-81
2022/11/02 11:04:01;;;;;;;10.07;2.20;;;;;;;;;;5037953;28;20048;-82
2022/11/02 11:06:50;;;;;;;11.20;2.22;;;;;;;;;;5026435;28;20038;-84
2022/11/02 11:09:30;;;;;;;18.90;2.38;;;;;;;;;;5042980;28;20113;-82
2022/11/02 11:12:03;;;;;;;10.95;2.65;;;;;;;;;;5032976;28;20022;-83
2022/11/02 11:14:44;;;;;;;9.10;2.30;;;;;;;;;;5032067;28;20064;-84
2022/11/02 11:17:22;;;;;;;5.95;1.60;;;;;;;;;;5031607;28;20106;-82
2022/11/02 11:19:52;;;;;;;10.00;1.67;;;;;;;;;;5045382;28;20045;-83
2022/11/02 11:22:38;;;;;;;8.90;2.10;;;;;;;;;;5023508;28;20561;-82
2022/11/02 11:25:12;;;;;;;12.88;2.60;;;;;;;;;;5038395;28;20423;-82
2022/11/02 11:27:45;;;;;;;8.40;1.83;;;;;;;;;;5027148;28;20025;-83
2022/11/02 11:30:32;;;;;;;9.35;1.70;;;;;;;;;;5029508;28;20049;-81
2022/11/02 11:33:06;;;;;;;9.50;2.35;;;;;;;;;;5033518;28;20567;-81
2022/11/02 11:35:38;;;;;;;9.18;2.20;;;;;;;;;;5014413;28;20050;-82
2022/11/02 11:38:14;;;;;;;10.07;3.03;;;15.90;99.90;;;;;;5042257;28;20101;-83
2022/11/02 11:40:46;;;;;;;11.50;2.10;;;;;;;;;;5038489;28;20316;-82
2022/11/02 11:43:20;;;;;;;8.23;2.20;;;;;;;;;;5042089;28;20072;-82
2022/11/02 11:46:02;;;;;;;7.65;1.95;;;;;;;;;;5032828;28;20539;-84
2022/11/02 11:48:50;;;;;;;9.95;2.53;;;;;;;;;;5008844;28;20129;-82
2022/11/02 11:51:42;;;;;;;11.68;1.83;;;;;;;;;;5040165;28;20147;-83
2022/11/02 11:54:36;;;;;;;9.00;3.30;;;;;;;;;;5026757;28;20113;-81
2022/11/02 11:57:38;;;;;;;9.88;1.90;;;;;;;;;;5009363;28;20471;-82
2022/11/02 12:00:25;;;;;;;9.13;1.98;;;;;;;;;;4971117;28;20068;-80
2022/11/02 12:03:08;;;;;;;10.52;2.20;;;;;;;;;;5016877;28;20405;-80
2022/11/02 12:05:55;;;;;;;11.80;2.25;;;16.40;99.90;;;;;;5006675;28;20030;-82
2022/11/02 12:08:40;;;;;;;11.15;2.40;;;;;;;;;;5027044;28;20041;-81
2022/11/02 12:11:14;;;;;;;11.50;2.03;;;;;;;;;;5035518;28;20099;-82
2022/11/02 12:13:53;;;;;;;8.15;1.50;;;;;;;;;;5027202;28;20040;-82
2022/11/02 12:16:28;;;;;;;10.25;2.17;;;;;;;;;;5046995;28;20107;-82
2022/11/02 12:19:01;;;;;;;12.32;2.55;;;;;;;;;;5046547;28;20053;-82
2022/11/02 12:22:05;;;;;;;10.88;2.22;;;16.00;99.90;;;;;;5025767;28;20081;-82
2022/11/02 12:24:43;;;;;;;12.35;2.78;;;;;;;;;;5021907;28;20030;-82
2022/11/02 12:27:19;;;;;;;7.28;1.73;;;;;;;;;;5019136;28;20025;-81
2022/11/02 12:30:11;;;;;;;9.95;2.28;;;;;;;;;;5044622;28;20032;-82
2022/11/02 12:33:09;;;;;;;9.18;1.98;;;16.00;99.90;;;;;;5044403;28;20029;-82
2022/11/02 12:35:43;;;;;;;9.68;1.88;;;;;;;;;;5038791;28;20029;-82
2022/11/02 12:38:25;;;;;;;10.35;2.00;;;;;;;;;;5044175;28;20500;-82
2022/11/02 12:41:01;;;;;;;11.10;2.63;;;;;;;;;;5019184;28;20030;-82
2022/11/02 12:43:46;;;;;;;7.25;1.77;;;;;;;;;;5026397;28;20025;-80
2022/11/02 12:46:34;;;;;;;15.77;3.00;;;16.40;99.90;;;;;;5040516;28;20116;-81
2022/11/02 12:49:04;;;;;;;9.23;2.03;;;;;;;;;;5022208;28;20032;-82
2022/11/02 12:51:36;;;;;;;10.73;2.60;;;;;;;;;;5024224;28;20030;-81
2022/11/02 12:54:19;;;;;;;8.98;1.80;;;;;;;;;;5023537;28;20033;-80
2022/11/02 12:56:56;;;;;;;7.45;2.10;;;16.30;99.90;;;;;;5034099;28;20049;-80
2022/11/02 12:59:37;;;;;;;7.72;1.90;;;16.20;99.90;;;;;;5028518;28;20408;-81
2022/11/02 13:02:12;;;;;;;10.23;2.10;;;16.20;99.90;;;;;;5001472;28;20025;-81
2022/11/02 13:04:58;;;;;;;7.10;1.52;;;16.10;99.90;;;;;;5029016;28;20036;-81
2022/11/02 13:08:01;;;;;;;4.88;1.25;;;16.10;99.90;;;;;;5015672;28;20084;-79
2022/11/02 13:10:44;;;;;;;6.72;1.73;;;16.10;99.90;;;;;;5021878;28;20032;-81
2022/11/02 13:13:25;;;;;;;8.63;1.90;;;16.00;99.90;;;;;;5034021;28;20030;-80
2022/11/02 13:16:06;;;;;;;8.75;1.75;;;16.00;99.90;;;;;;5007183;28;20061;-80
2022/11/02 13:18:57;;;;;;;9.45;1.73;;;15.90;99.90;;;;;;5038261;28;20052;-80
2022/11/02 13:21:53;;;;;;;11.07;1.80;;;15.90;99.90;;;;;;5050115;28;20019;-80
2022/11/02 13:24:38;;;;;;;18.42;6.05;;;15.90;99.90;;;;;;5050980;28;20061;-79
2022/11/02 13:27:15;;;;;;;10.27;2.45;;;15.90;99.90;;;;;;5035793;28;20085;-80
2022/11/02 13:29:51;;;;;;;9.65;1.90;;;15.90;99.90;;;;;;5027996;28;20060;-81
2022/11/02 13:49:56;;;;;;;9.10;1.60;;;16.00;99.90;;;;;;5010628;28;20053;-80
2022/11/02 14:06:52;;;;;;;7.40;1.83;;;15.80;99.90;;;;;;4858062;29;20122;-80
2022/11/02 14:23:38;;;;;;;9.98;1.90;;;15.60;99.90;;;;;;4775918;30;20051;-80
2022/11/02 14:26:34;;;;;;;6.82;1.52;;;15.50;99.90;;;;;;4770065;29;20040;-82
2022/11/02 14:29:18;;;;;;;5.47;1.50;;;;;;;;;;4859373;29;20076;-79
2022/11/02 14:31:53;;;;;;;7.10;2.28;;;;;;;;;;4874049;29;20036;-81
2022/11/02 14:42:01;;;;;;;6.90;1.40;;;15.40;99.90;;;;;;4908994;29;20524;-81
2022/11/02 14:58:33;;;;;;;11.55;2.15;;;;;;;;;;4991505;28;20074;-80
2022/11/02 15:02:06;;;;;;;9.50;1.98;;;15.20;99.90;;;;;;4937262;29;20031;-80
2022/11/02 15:12:24;;;;;;;10.95;2.05;;;15.10;99.90;;;;;;4829434;29;20136;-80
2022/11/02 15:26:00;;;;;;;9.70;2.30;;;14.80;99.90;;;;;;4828111;29;20346;-80
2022/11/02 15:46:45;;;;;;;8.52;2.20;;;14.50;99.90;;;;;;4804473;29;20047;-80
2022/11/02 15:49:26;;;;;;;11.23;1.90;;;;;;;;;;4812417;29;20038;-81
2022/11/02 15:52:03;;;;;;;10.77;2.40;;;;;;;;;;4876490;29;20052;-82
2022/11/02 15:54:50;;;;;;;12.27;2.50;;;;;;;;;;4871511;29;20053;-83
2022/11/02 15:57:36;;;;;;;10.75;2.75;;;;;;;;;;4860833;29;20044;-81
2022/11/02 16:00:09;;;;;;;8.02;2.13;;;;;;;;;;4868315;29;20037;-83
2022/11/02 16:02:59;;;;;;;10.68;2.30;;;;;;;;;;5006451;28;20070;-81
2022/11/02 16:05:27;;;;;;;8.93;1.90;;;;;;;;;;5063733;28;20268;-80
2022/11/02 16:08:01;;;;;;;11.30;2.28;;;;;;;;;;5029718;28;20035;-82
2022/11/02 16:10:38;;;;;;;11.93;3.30;;;;;;;;;;5046653;28;20021;-81
2022/11/02 16:32:32;;;;;;;12.13;3.60;;;13.70;99.90;;;;;;5017664;28;20034;-87
2022/11/02 16:34:59;;;;;;;13.48;4.10;;;13.70;99.90;;;;;;5007323;28;20029;-85
2022/11/02 16:37:25;;;;;;;15.45;3.83;;;13.60;99.90;;;;;;5017649;28;20111;-86
2022/11/02 16:39:52;;;;;;;11.82;3.75;;;;;;;;;;5003210;28;20082;-85
2022/11/02 16:42:21;;;;;;;14.43;3.72;;;13.40;99.90;;;;;;5009716;28;20026;-86
2022/11/02 16:44:59;;;;;;;11.70;3.05;;;13.40;99.90;;;;;;5017146;28;20045;-88
2022/11/02 16:47:40;;;;;;;11.88;3.40;;;13.30;99.90;;;;;;5010590;28;20599;-84
2022/11/02 16:50:23;;;;;;;12.75;3.50;;;;;;;;;;5004191;28;20041;-85
2022/11/02 16:52:53;;;;;;;10.85;3.53;;;;;;;;;;4991350;28;20134;-83
2022/11/02 16:55:35;;;;;;;10.85;3.50;;;;;;;;;;5026338;28;20038;-84
2022/11/02 16:58:02;;;;;;;15.38;3.33;;;13.10;99.90;;;;;;5032008;28;20034;-84
2022/11/02 17:00:28;;;;;;;8.80;2.67;;;;;;;;;;5003558;28;20022;-86
2022/11/02 17:02:54;;;;;;;10.00;2.58;;;13.00;99.90;;;;;;5004384;28;20119;-84
2022/11/02 17:05:25;;;;;;;11.95;3.30;;;12.90;99.90;;;;;;5018668;28;20041;-84
2022/11/02 17:08:03;;;;;;;;;;;12.80;99.90;;;;;;5003014;28;20140;-81
2022/11/02 17:10:31;;;;;;;13.25;3.33;;;12.80;99.90;;;;;;5022579;28;19932;-87
2022/11/02 17:12:58;;;;;;;10.32;2.53;;;12.70;99.90;;;;;;5003486;28;20057;-84
2022/11/02 17:15:27;;;;;;;10.35;2.50;;;12.60;99.90;;;;;;5019981;28;20059;-85
2022/11/02 17:18:19;;;;;;;13.82;3.25;;;12.60;99.90;;;;;;5009652;28;20042;-87
2022/11/02 17:20:46;;;;;;;10.77;2.78;;;12.60;99.90;;;;;;4981195;28;20034;-87
2022/11/02 17:23:31;;;;;;;9.95;3.33;;;;;;;;;;5006874;28;20094;-86
2022/11/02 17:26:22;;;;;;;12.52;3.42;;;12.40;99.90;;;;;;5007133;28;20465;-85
2022/11/02 17:28:54;;;;;;;;;;;12.40;99.90;;;;;;5002889;28;20037;-84
2022/11/02 17:31:39;;;;;;;11.77;3.38;;;;;;;;;;5012337;28;19928;-86
2022/11/02 17:34:16;;;;;;;12.55;3.15;;;12.30;99.90;;;;;;5019800;28;20045;-86
2022/11/02 17:36:43;;;;;;;13.52;3.05;;;12.20;99.90;;;;;;5003557;28;20030;-85
2022/11/02 17:39:17;;;;;;;15.55;3.17;;;12.20;99.90;;;;;;5002356;28;20034;-82
2022/11/02 17:44:29;;;;;;;9.32;2.80;;;;;;;;;;5017846;28;20080;-84
2022/11/02 17:46:55;;;;;;;12.93;2.90;;;;;;;;;;5022690;28;20018;-82
2022/11/02 17:49:21;;;;;;;14.15;3.13;;;;;;;;;;4999472;28;20045;-84
2022/11/02 17:51:47;;;;;;;11.02;3.60;;;;;;;;;;5010217;28;20038;-84
2022/11/02 17:54:13;;;;;;;15.70;5.43;;;;;;;;;;5025093;28;20144;-84
2022/11/02 17:56:40;;;;;;;17.38;5.78;;;;;;;;;;4999669;28;20081;-85
2022/11/02 17:59:06;;;;;;;11.93;4.82;;;11.80;99.90;;;;;;5011121;28;20053;-85
2022/11/02 18:01:32;;;;;;;14.57;4.35;;;;;;;;;;5000960;28;20033;-86
2022/11/02 18:03:58;;;;;;;15.95;4.28;;;;;;;;;;4997835;28;20089;-84
2022/11/02 18:06:24;;;;;;;14.88;4.57;;;11.70;99.90;;;;;;4998477;28;20030;-84
2022/11/02 18:11:34;;;;;;;14.80;4.68;;;;;;;;;;5008709;28;20033;-86
2022/11/02 18:14:00;;;;;;;11.57;4.20;;;;;;;;;;5012033;28;20022;-84
2022/11/02 18:16:26;;;;;;;14.55;4.55;;;;;;;;;;5009778;28;20038;-84
2022/11/02 18:18:52;;;;;;;13.70;4.35;;;;;;;;;;5008345;28;20030;-83
2022/11/02 18:21:24;;;;;;;10.38;3.65;;;;;;;;;;4998760;28;20037;-85
2022/11/02 18:23:50;;;;;;;14.38;5.90;;;;;;;;;;5001657;28;20023;-85
2022/11/02 18:26:16;;;;;;;16.67;4.63;;;;;;;;;;4990349;28;20030;-84
2022/11/02 18:28:42;;;;;;;12.32;4.53;;;;;;;;;;5000043;28;20061;-87
2022/11/02 18:31:09;;;;;;;17.38;4.97;;;;;;;;;;5025517;28;20049;-88
2022/11/02 18:33:35;;;;;;;10.07;4.18;;;;;;;;;;5020203;28;20025;-88
2022/11/02 18:36:02;;;;;;;14.15;4.43;;;;;;;;;;5035694;28;20050;-87
2022/11/02 18:38:28;;;;;;;13.52;4.30;;;;;;;;;;5034247;28;20034;-85
2022/11/02 18:40:54;;;;;;;12.50;4.30;;;;;;;;;;5015731;28;20089;-86
2022/11/02 18:43:20;;;;;;;15.88;4.55;;;;;;;;;;5035456;28;20074;-85
2022/11/02 18:45:46;;;;;;;14.32;4.80;;;;;;;;;;4997340;28;20031;-81
2022/11/02 18:48:12;;;;;;;12.65;5.03;;;;;;;;;;4999723;28;20030;-84
2022/11/02 18:50:38;;;;;;;16.02;6.15;;;;;;;;;;5009174;28;20041;-88
2022/11/02 18:53:04;;;;;;;15.48;6.10;;;;;;;;;;4984275;28;20125;-82
2022/11/02 18:55:30;;;;;;;19.23;6.43;;;;;;;;;;5010442;28;20470;-85
2022/11/02 18:57:57;;;;;;;17.88;5.97;;;;;;;;;;5022805;28;20118;-85
2022/11/02 19:00:23;;;;;;;16.75;5.65;;;;;;;;;;5013253;28;20037;-85
2022/11/02 19:02:49;;;;;;;17.63;5.20;;;;;;;;;;5016588;28;20040;-89
2022/11/02 19:10:50;;;;;;;13.35;4.82;;;;;;;;;;5025794;28;20045;-86
2022/11/02 19:13:16;;;;;;;25.17;5.60;;;;;;;;;;5020477;28;20025;-89
2022/11/02 19:15:42;;;;;;;13.18;4.50;;;;;;;;;;5020079;28;20037;-87
2022/11/02 19:18:09;;;;;;;15.13;5.50;;;;;;;;;;5006016;28;20034;-87
2022/11/02 19:20:35;;;;;;;14.02;5.20;;;;;;;;;;5010494;28;20026;-86
2022/11/02 19:23:01;;;;;;;11.90;4.32;;;;;;;;;;5024637;28;20022;-86
2022/11/02 19:25:27;;;;;;;19.17;5.25;;;;;;;;;;5018841;28;20030;-89
2022/11/02 19:27:53;;;;;;;12.32;5.70;;;;;;;;;;5011051;28;20080;-86
2022/11/02 19:30:19;;;;;;;15.52;6.03;;;;;;;;;;5006807;28;20034;-87
2022/11/02 19:32:51;;;;;;;15.23;5.60;;;;;;;;;;5009692;28;20026;-86
2022/11/02 19:35:30;;;;;;;13.30;5.68;;;;;;;;;;5001631;28;20029;-87
2022/11/02 19:37:59;;;;;;;22.30;6.15;;;;;;;;;;5020213;28;20018;-89
2022/11/02 19:40:28;;;;;;;15.02;5.35;;;;;;;;;;4987209;28;20031;-87
2022/11/02 19:43:26;;;;;;;12.93;5.40;;;;;;;;;;4988215;28;20026;-87
2022/11/02 19:46:01;;;;;;;15.05;5.40;;;;;;;;;;4950639;28;20090;-88
2022/11/02 19:48:36;;;;;;;14.55;5.45;;;;;;;;;;5006172;28;20105;-86
2022/11/02 19:51:06;;;;;;;13.43;5.60;;;;;;;;;;5015220;28;20034;-86
2022/11/02 19:53:35;;;;;;;15.82;5.60;;;;;;;;;;5015898;28;20026;-88
2022/11/02 19:56:13;;;;;;;12.75;5.47;;;;;;;;;;5005767;28;20481;-88
2022/11/02 19:58:42;;;;;;;15.95;5.65;;;;;;;;;;5008027;28;20030;-85
2022/11/02 20:01:16;;;;;;;17.25;5.47;;;;;;;;;;4993962;28;20088;-87
2022/11/02 20:03:43;;;;;;;13.18;5.40;;;;;;;;;;5018920;28;20022;-87
2022/11/02 20:06:14;;;;;;;14.02;5.63;;;;;;;;;;5015028;28;20036;-87
2022/11/02 20:08:43;;;;;;;18.98;6.57;;;;;;;;;;5014402;28;20026;-87
2022/11/02 20:11:15;;;;;;;17.98;6.97;;;;;;;;;;5002576;28;20044;-89
2022/11/02 20:13:52;;;;;;;17.98;6.80;;;;;;;;;;5022383;28;20022;-86
2022/11/02 20:16:19;;;;;;;18.17;6.93;;;;;;;;;;5007936;28;20033;-88
2022/11/02 20:18:46;;;;;;;15.70;6.15;;;;;;;;;;5011878;28;20079;-86
2022/11/02 20:21:16;;;;;;;25.48;11.85;;;;;;;;;;5020557;28;20081;-88